createdAt,value
2022-10-26T00:01:54.296Z,18.97
2022-10-26T00:06:56.860Z,20.50
2022-10-26T00:11:59.308Z,24.07
2022-10-26T00:17:01.977Z,20.23
2022-10-26T00:22:04.464Z,24.87
2022-10-26T00:27:06.898Z,34.80
2022-10-26T00:32:09.458Z,21.10
2022-10-26T00:37:11.884Z,18.23
2022-10-26T00:42:21.276Z,19.07
2022-10-26T00:47:28.196Z,17.60
2022-10-26T00:52:30.934Z,24.23
2022-10-26T00:57:33.881Z,187.60
2022-10-26T01:02:36.484Z,19.40
2022-10-26T01:07:39.917Z,18.77
2022-10-26T01:12:42.814Z,21.17
2022-10-26T01:17:56.267Z,17.17
2022-10-26T01:23:22.269Z,21.47
2022-10-26T01:28:57.292Z,17.83
2022-10-26T01:34:21.265Z,35.67
2022-10-26T01:39:28.793Z,34.50
2022-10-26T01:44:41.944Z,24.10
2022-10-26T01:49:53.297Z,21.60
2022-10-26T01:55:34.403Z,28.27
2022-10-26T02:00:42.393Z,29.57
2022-10-26T02:06:08.431Z,22.80
2022-10-26T02:11:41.302Z,22.30
2022-10-26T02:16:49.782Z,41.83
2022-10-26T02:21:59.360Z,30.07
2022-10-26T02:27:04.567Z,35.53
2022-10-26T02:32:09.097Z,56.40
2022-10-26T02:37:13.699Z,50.03
2022-10-26T02:42:16.500Z,23.80
2022-10-26T02:47:20.164Z,29.43
2022-10-26T02:52:27.968Z,16.03
2022-10-26T02:57:41.144Z,53.10
2022-10-26T03:02:59.800Z,17.67
2022-10-26T03:08:02.565Z,21.67
2022-10-26T03:13:04.994Z,83.67
2022-10-26T03:18:08.033Z,16.23
2022-10-26T03:23:10.920Z,15.87
2022-10-26T03:28:14.238Z,28.07
2022-10-26T03:33:16.707Z,69.40
2022-10-26T03:38:19.296Z,26.53
2022-10-26T03:43:21.761Z,58.10
2022-10-26T03:48:24.266Z,30.97
2022-10-26T03:53:27.341Z,22.83
2022-10-26T03:58:30.203Z,88.17
2022-10-26T04:03:32.672Z,23.70
2022-10-26T04:08:35.365Z,23.03
2022-10-26T04:13:37.867Z,28.33
2022-10-26T04:18:40.365Z,30.03
2022-10-26T04:23:42.962Z,75.30
2022-10-26T04:28:48.277Z,23.10
2022-10-26T04:33:51.052Z,31.60
2022-10-26T04:38:53.645Z,174.63
2022-10-26T04:43:56.202Z,42.33
2022-10-26T04:48:58.827Z,47.40
2022-10-26T04:54:01.797Z,95.30
2022-10-26T04:59:04.690Z,59.30
2022-10-26T05:04:07.215Z,23.33
2022-10-26T05:09:12.770Z,75.43
2022-10-26T05:14:15.145Z,16.87
2022-10-26T05:19:17.610Z,34.30
2022-10-26T05:24:20.221Z,38.33
2022-10-26T05:29:22.647Z,28.43
2022-10-26T05:34:24.965Z,15.97
2022-10-26T05:39:27.407Z,35.20
2022-10-26T05:44:29.878Z,26.97
2022-10-26T05:49:32.253Z,14.00
2022-10-26T05:54:34.658Z,22.13
2022-10-26T05:59:37.270Z,16.30
2022-10-26T06:04:50.776Z,24.77
2022-10-26T06:09:53.590Z,16.07
2022-10-26T06:14:56.406Z,41.37
2022-10-26T06:20:22.152Z,22.97
2022-10-26T06:25:45.589Z,34.40
2022-10-26T06:30:48.075Z,22.87
2022-10-26T07:06:33.396Z,238.57
2022-10-26T07:23:38.100Z,92.80
2022-10-26T07:28:41.820Z,111.53
2022-10-26T07:33:50.755Z,61.33
2022-10-26T07:38:54.065Z,53.40
2022-10-26T07:43:59.924Z,42.90
2022-10-26T07:49:02.514Z,41.90
2022-10-26T07:54:57.815Z,57.33
2022-10-26T08:20:51.872Z,33.43
2022-10-26T08:32:16.071Z,35.37
2022-10-26T08:37:18.502Z,23.37
2022-10-26T08:42:31.852Z,87.93
2022-10-26T08:47:43.859Z,56.43
2022-10-26T08:52:52.408Z,20.77
2022-10-26T08:57:56.014Z,27.77
2022-10-26T09:02:58.526Z,36.17
2022-10-26T09:08:31.438Z,25.67
2022-10-26T09:13:59.014Z,19.20
2022-10-26T09:25:59.920Z,25.33
2022-10-26T09:31:17.244Z,25.70
2022-10-26T09:36:24.367Z,25.07
2022-10-26T09:41:43.896Z,30.57
2022-10-26T09:47:45.431Z,30.83
2022-10-26T09:52:51.219Z,26.00
2022-10-26T09:58:01.527Z,24.13
2022-10-26T10:03:24.642Z,26.57
2022-10-26T10:08:27.938Z,28.27
2022-10-26T10:13:33.168Z,22.87
2022-10-26T10:18:36.640Z,24.90
2022-10-26T10:23:52.240Z,23.33
2022-10-26T10:29:16.787Z,24.03
2022-10-26T10:34:22.301Z,26.87
2022-10-26T10:39:29.291Z,24.13
2022-10-26T10:44:33.783Z,19.63
2022-10-26T10:49:36.155Z,27.00
2022-10-26T10:54:40.000Z,24.17
2022-10-26T11:00:03.798Z,22.43
2022-10-26T11:05:38.182Z,23.23
2022-10-26T11:10:47.564Z,21.47
2022-10-26T11:15:55.566Z,23.80
2022-10-26T11:21:13.100Z,25.63
2022-10-26T11:26:33.377Z,30.20
2022-10-26T11:31:41.852Z,32.37
2022-10-26T11:36:49.976Z,26.07
2022-10-26T11:42:01.486Z,22.57
2022-10-26T11:47:19.652Z,23.60
2022-10-26T11:53:04.087Z,22.63
2022-10-26T11:58:06.589Z,21.00
2022-10-26T12:03:12.459Z,24.80
2022-10-26T12:08:49.074Z,21.03
2022-10-26T12:13:58.727Z,22.57
2022-10-26T12:19:21.180Z,21.70
2022-10-26T12:24:26.622Z,16.90
2022-10-26T12:29:31.221Z,18.33
2022-10-26T12:34:46.332Z,16.23
2022-10-26T12:39:48.728Z,18.37
2022-10-26T12:44:53.747Z,19.03
2022-10-26T12:50:07.967Z,20.50
2022-10-26T12:55:13.282Z,18.83
2022-10-26T13:00:18.962Z,19.47
2022-10-26T13:05:29.950Z,15.37
2022-10-26T13:10:33.103Z,14.17
2022-10-26T13:15:40.936Z,13.63
2022-10-26T13:21:09.360Z,11.43
2022-10-26T13:26:17.383Z,9.50
2022-10-26T13:31:28.979Z,11.67
2022-10-26T13:37:09.694Z,14.27
2022-10-26T13:42:21.582Z,10.07
2022-10-26T13:48:01.337Z,9.03
2022-10-26T13:53:15.109Z,9.57
2022-10-26T13:58:34.691Z,12.93
2022-10-26T14:03:38.085Z,32.50
2022-10-26T14:08:42.665Z,13.40
2022-10-26T14:13:47.020Z,15.43
2022-10-26T14:18:49.793Z,19.43
2022-10-26T14:23:58.296Z,13.90
2022-10-26T14:29:01.692Z,21.67
2022-10-26T14:34:05.497Z,14.27
2022-10-26T14:39:16.361Z,7.37
2022-10-26T14:44:22.314Z,12.27
2022-10-26T14:49:27.778Z,11.77
2022-10-26T14:54:30.577Z,48.17
2022-10-26T14:59:33.170Z,124.50
2022-10-26T15:04:38.133Z,26.07
2022-10-26T15:09:43.457Z,27.67
2022-10-26T15:14:46.035Z,22.73
2022-10-26T15:19:49.329Z,48.80
2022-10-26T15:24:55.331Z,48.73
2022-10-26T15:30:30.144Z,29.93
2022-10-26T15:35:32.668Z,38.40
2022-10-26T15:40:37.072Z,45.87
2022-10-26T15:59:33.775Z,38.87
2022-10-26T16:04:36.156Z,27.47
2022-10-26T16:09:39.148Z,28.10
2022-10-26T16:15:03.868Z,27.37
2022-10-26T16:20:08.862Z,33.80
2022-10-26T16:25:11.604Z,23.27
2022-10-26T16:30:15.025Z,42.87
2022-10-26T16:35:17.426Z,47.53
2022-10-26T16:40:19.890Z,79.70
2022-10-26T16:45:22.237Z,80.07
2022-10-26T16:50:24.716Z,76.33
2022-10-26T16:55:27.082Z,96.53
2022-10-26T17:00:29.546Z,84.33
2022-10-26T17:05:31.967Z,82.27
2022-10-26T17:10:34.398Z,82.23
2022-10-26T17:15:36.777Z,80.77
2022-10-26T17:20:39.329Z,75.37
2022-10-26T17:25:41.764Z,70.70
2022-10-26T17:30:44.814Z,77.67
2022-10-26T17:35:53.306Z,72.40
2022-10-26T17:41:01.287Z,66.73
2022-10-26T17:46:08.274Z,65.07
2022-10-26T17:51:13.590Z,92.97
2022-10-26T17:56:24.199Z,74.30
2022-10-26T18:01:27.783Z,71.10
2022-10-26T18:06:30.223Z,77.00
2022-10-26T18:11:32.612Z,85.83
2022-10-26T18:16:35.050Z,82.63
2022-10-26T18:21:38.104Z,78.33
2022-10-26T18:26:40.648Z,74.43
2022-10-26T18:31:45.047Z,73.83
2022-10-26T18:36:47.454Z,89.47
2022-10-26T18:41:49.838Z,156.00
2022-10-26T18:46:52.371Z,149.17
2022-10-26T18:51:54.896Z,167.87
2022-10-26T18:56:57.420Z,171.03
2022-10-26T19:01:59.948Z,186.27
2022-10-26T19:07:02.434Z,201.37
2022-10-26T19:12:04.885Z,220.90
2022-10-26T19:17:07.375Z,202.77
2022-10-26T19:22:11.398Z,189.97
2022-10-26T19:27:13.962Z,155.67
2022-10-26T19:32:16.430Z,140.63
2022-10-26T19:37:18.855Z,155.03
2022-10-26T19:42:21.268Z,120.77
2022-10-26T19:47:24.010Z,106.13
2022-10-26T19:52:26.404Z,92.53
2022-10-26T19:57:28.778Z,82.97
2022-10-26T20:02:31.200Z,111.80
2022-10-26T20:07:33.571Z,122.20
2022-10-26T20:12:35.964Z,111.57
2022-10-26T20:17:38.379Z,112.03
2022-10-26T20:22:40.973Z,88.27
2022-10-26T20:27:43.392Z,92.17
2022-10-26T20:32:45.787Z,98.67
2022-10-26T20:37:48.919Z,93.03
2022-10-26T20:42:52.715Z,97.03
2022-10-26T20:47:55.912Z,133.07
2022-10-26T20:53:04.429Z,210.63
2022-10-26T20:58:41.826Z,228.17
2022-10-26T21:03:44.241Z,216.60
2022-10-26T21:08:49.959Z,195.67
2022-10-26T21:13:53.746Z,221.63
2022-10-26T21:18:56.145Z,195.37
2022-10-26T21:23:58.891Z,180.00
2022-10-26T21:29:01.411Z,136.20
2022-10-26T21:34:04.644Z,158.10
2022-10-26T21:39:06.997Z,142.63
2022-10-26T21:44:23.161Z,115.20
2022-10-26T21:49:32.502Z,120.47
2022-10-26T21:54:34.937Z,126.10
2022-10-26T21:59:37.438Z,106.93
2022-10-26T22:04:39.845Z,104.23
2022-10-26T22:09:55.125Z,90.90
2022-10-26T22:15:05.001Z,92.33
2022-10-26T22:20:09.012Z,81.27
2022-10-26T22:25:11.542Z,83.47
2022-10-26T22:30:14.257Z,74.67
2022-10-26T22:35:28.981Z,74.23
2022-10-26T22:40:31.976Z,81.60
2022-10-26T22:45:34.306Z,126.13
2022-10-26T22:50:38.123Z,61.70
2022-10-26T22:55:45.722Z,52.40
2022-10-26T23:00:48.041Z,70.07
2022-10-26T23:05:50.362Z,72.33
2022-10-26T23:10:52.963Z,52.40
2022-10-26T23:15:56.025Z,49.20
2022-10-26T23:20:58.328Z,47.00
2022-10-26T23:26:05.902Z,49.73
2022-10-26T23:31:12.903Z,54.73
2022-10-26T23:36:15.175Z,58.10
2022-10-26T23:41:17.623Z,58.03
2022-10-26T23:46:19.995Z,50.30
2022-10-26T23:51:22.354Z,59.07
2022-10-26T23:56:24.652Z,42.07
